Grattan, Minnesota
Current Conditions -  °F | °C
As of 7:53 PM on Sunday 21 Dec 2014 (Local Time) from KFOZ Reporting Station
Haze Haze  
Wind Chill: 34°   Ceiling: 400
Heat Index: 34°   Visibility: 5mi
Dew Point: 30°   Wind: 3mph
Humidity: 87%   Direction: 150°SSE
Pressure: 29.67"   Gusts: NA
Location:  47.8312°N, 94.1459°W
Report Text: KFOZ 220153Z AUTO 15003KT 5SM BR OVC004 01/M01 A2967 RMK AO2
Loading
Personal Weather Stations






























Interactive Weather Map New forecast layout! Learn more

10-Day Weather Forecast

Advertisements
Track Severe Weather on mobile